Amalia, New Mexico
Current Conditions -  °F | °C
As of 7:55 PM on Tuesday 25 Nov 2014 (Local Time) from KSKX Reporting Station
Clear Clear  
Wind Chill: 14°   Ceiling: Unl
Heat Index: 25°   Visibility: 10mi
Dew Point:   Wind: 12mph
Humidity: 50%   Direction: 230°SW
Pressure: 30.25"   Gusts: NA
Location:  36.94°N, 105.45°W
Report Text: KSKX 260255Z AUTO 23010KT 10SM CLR M04/M13 A3025 RMK AO1 52014
Loading
Personal Weather Stations






























Interactive Weather Map New forecast layout! Learn more

10-Day Weather Forecast

Advertisements
Track Severe Weather on mobile